Time;durP1;ratioP1;P1;durP2;ratioP2;P2;SDS_P1;SDS_P2;PMS_P1;PMS_P2;Temp;Humidity;BMP_temperature;BMP_pressure;BME280_temperature;BME280_humidity;BME280_pressure;Samples;Min_cycle;Max_cycle;Signal;HPM_P1;HPM_P2
2023/09/03 00:01:41;;;;;;;4.10;3.60;;;17.60;99.90;;;;;;4979518;28;20182;-31
2023/09/03 00:04:07;;;;;;;4.97;3.45;;;17.50;99.90;;;;;;4979274;28;20210;-31
2023/09/03 00:06:33;;;;;;;3.97;3.55;;;17.40;99.90;;;;;;4995277;28;20265;-34
2023/09/03 00:08:58;;;;;;;5.32;3.85;;;17.40;99.90;;;;;;4994224;28;20187;-31
2023/09/03 00:11:24;;;;;;;5.20;3.80;;;17.40;99.90;;;;;;4980134;28;20180;-30
2023/09/03 00:13:50;;;;;;;6.03;3.95;;;17.30;99.90;;;;;;4998604;28;20196;-31
2023/09/03 00:16:16;;;;;;;4.53;4.00;;;17.30;99.90;;;;;;4999489;28;20220;-32
2023/09/03 00:18:41;;;;;;;5.53;3.70;;;17.30;99.90;;;;;;5015677;28;20186;-32
2023/09/03 00:21:07;;;;;;;7.35;3.88;;;17.40;99.90;;;;;;4999375;28;20181;-32
2023/09/03 00:23:33;;;;;;;5.10;3.53;;;17.40;99.90;;;;;;4990793;28;20219;-30
2023/09/03 00:26:00;;;;;;;9.75;4.15;;;17.40;99.90;;;;;;5011794;28;20280;-29
2023/09/03 00:28:26;;;;;;;5.38;3.47;;;17.40;99.90;;;;;;4995723;28;20187;-31
2023/09/03 00:31:08;;;;;;;4.63;3.55;;;17.40;99.90;;;;;;4979749;28;20183;-31
2023/09/03 00:33:35;;;;;;;6.53;3.90;;;17.50;99.90;;;;;;4979493;28;20184;-32
2023/09/03 00:36:03;;;;;;;4.90;3.70;;;17.50;99.90;;;;;;4979442;28;20290;-32
2023/09/03 00:38:29;;;;;;;6.45;3.42;;;17.50;99.90;;;;;;4979405;28;20211;-32
2023/09/03 00:40:54;;;;;;;5.20;3.72;;;17.40;99.90;;;;;;4980096;28;20226;-31
2023/09/03 00:43:21;;;;;;;7.07;3.72;;;17.40;99.90;;;;;;4979380;28;20261;-31
2023/09/03 00:45:48;;;;;;;3.80;3.35;;;17.30;99.90;;;;;;4987703;28;20202;-32
2023/09/03 00:48:17;;;;;;;5.50;3.40;;;17.30;99.90;;;;;;4998914;28;20179;-32
2023/09/03 00:50:46;;;;;;;5.00;3.70;;;17.20;99.90;;;;;;4998970;28;20194;-32
2023/09/03 00:53:15;;;;;;;4.47;3.33;;;17.20;99.90;;;;;;4998979;28;20186;-32
2023/09/03 00:55:41;;;;;;;3.53;3.00;;;17.30;99.90;;;;;;4998648;28;20198;-32
2023/09/03 00:58:08;;;;;;;8.25;3.28;;;17.20;99.90;;;;;;4998439;28;20179;-32
2023/09/03 01:00:35;;;;;;;5.45;3.08;;;17.20;99.90;;;;;;4998482;28;20262;-32
2023/09/03 01:03:04;;;;;;;4.30;3.65;;;17.10;99.90;;;;;;4996411;28;20210;-32
2023/09/03 01:05:30;;;;;;;4.50;3.40;;;17.10;99.90;;;;;;4979053;28;20203;-32
2023/09/03 01:07:58;;;;;;;5.00;3.72;;;17.00;99.90;;;;;;4987208;28;20176;-32
2023/09/03 01:10:44;;;;;;;6.97;3.63;;;17.00;99.90;;;;;;4979059;28;20179;-32
2023/09/03 01:14:00;;;;;;;5.88;3.40;;;16.90;99.90;;;;;;4986237;28;20191;-31
2023/09/03 01:16:34;;;;;;;3.92;3.53;;;16.90;99.90;;;;;;4912875;29;20210;-32
2023/09/03 01:19:21;;;;;;;6.78;3.40;;;16.90;99.90;;;;;;4895200;29;20181;-32
2023/09/03 01:22:04;;;;;;;4.63;3.38;;;16.80;99.90;;;;;;4983065;28;20203;-32
2023/09/03 01:24:51;;;;;;;4.65;3.30;;;16.80;99.90;;;;;;4983483;28;20202;-32
2023/09/03 01:27:33;;;;;;;4.30;3.22;;;16.80;99.90;;;;;;4994814;28;20178;-32
2023/09/03 01:30:00;;;;;;;4.53;3.30;;;16.80;99.90;;;;;;5001046;28;20256;-32
2023/09/03 01:32:26;;;;;;;4.05;3.08;;;16.80;99.90;;;;;;5001641;28;20252;-32
2023/09/03 01:34:54;;;;;;;6.55;4.00;;;16.80;99.90;;;;;;5000450;28;20209;-32
2023/09/03 01:37:19;;;;;;;4.65;3.25;;;16.70;99.90;;;;;;5000492;28;20658;-31
2023/09/03 01:39:46;;;;;;;4.03;3.60;;;16.70;99.90;;;;;;5015398;28;20676;-32
2023/09/03 01:42:12;;;;;;;8.60;3.67;;;16.70;99.90;;;;;;4987644;28;20186;-31
2023/09/03 01:44:38;;;;;;;4.18;3.10;;;16.60;99.90;;;;;;4993671;28;20203;-31
2023/09/03 01:47:41;;;;;;;4.88;3.42;;;16.60;99.90;;;;;;4995705;28;20184;-31
2023/09/03 01:50:22;;;;;;;4.90;3.22;;;16.50;99.90;;;;;;4957856;28;20179;-32
2023/09/03 01:52:56;;;;;;;4.80;3.40;;;16.50;99.90;;;;;;4985463;28;20191;-32
2023/09/03 01:55:28;;;;;;;4.32;3.03;;;16.50;99.90;;;;;;4992833;28;20206;-32
2023/09/03 01:57:59;;;;;;;3.90;3.00;;;16.50;99.90;;;;;;4995543;28;20182;-32
2023/09/03 02:00:26;;;;;;;5.38;3.10;;;16.40;99.90;;;;;;4997510;28;20174;-31
2023/09/03 02:02:54;;;;;;;3.87;3.23;;;16.40;99.90;;;;;;4997302;28;20194;-32
2023/09/03 02:05:20;;;;;;;4.97;3.42;;;16.40;99.90;;;;;;4997296;28;20248;-32
2023/09/03 02:07:46;;;;;;;4.68;2.95;;;16.40;99.90;;;;;;4997478;28;20276;-32
2023/09/03 02:10:12;;;;;;;4.60;3.20;;;16.40;99.90;;;;;;4996459;28;20242;-32
2023/09/03 02:12:38;;;;;;;4.70;3.20;;;16.30;99.90;;;;;;4996986;28;20182;-32
2023/09/03 02:15:04;;;;;;;4.25;3.45;;;16.30;99.90;;;;;;4996164;28;20229;-32
2023/09/03 02:17:30;;;;;;;3.45;3.15;;;16.30;99.90;;;;;;4990853;28;20183;-31
2023/09/03 02:19:56;;;;;;;3.90;3.40;;;16.30;99.90;;;;;;4996874;28;20190;-32
2023/09/03 02:22:22;;;;;;;4.43;3.60;;;16.30;99.90;;;;;;5008280;28;20188;-31
2023/09/03 02:24:50;;;;;;;3.83;3.20;;;16.30;99.90;;;;;;4977287;28;20214;-32
2023/09/03 02:27:15;;;;;;;4.20;3.40;;;16.30;99.90;;;;;;4977639;28;20307;-32
2023/09/03 02:29:42;;;;;;;4.20;3.00;;;16.30;99.90;;;;;;4977428;28;20179;-32
2023/09/03 02:32:08;;;;;;;4.07;3.10;;;16.20;99.90;;;;;;4977334;28;20183;-31
2023/09/03 02:34:34;;;;;;;5.13;3.07;;;16.30;99.90;;;;;;4977860;28;20301;-31
2023/09/03 02:37:03;;;;;;;4.97;3.27;;;16.20;99.90;;;;;;4977793;28;20183;-32
2023/09/03 02:39:29;;;;;;;3.70;3.40;;;16.20;99.90;;;;;;4977313;28;20179;-31
2023/09/03 02:41:55;;;;;;;4.72;3.30;;;16.20;99.90;;;;;;4982044;28;20233;-31
2023/09/03 02:44:21;;;;;;;5.30;3.70;;;16.20;99.90;;;;;;4981526;28;20210;-32
2023/09/03 02:46:48;;;;;;;7.03;3.30;;;16.30;99.90;;;;;;4992718;28;20187;-32
2023/09/03 02:49:14;;;;;;;4.00;3.43;;;16.30;99.90;;;;;;5005099;28;20236;-32
2023/09/03 02:51:41;;;;;;;5.03;3.80;;;16.30;99.90;;;;;;4997670;28;20183;-32
2023/09/03 02:54:07;;;;;;;6.07;3.20;;;16.30;99.90;;;;;;4977199;28;20189;-31
2023/09/03 02:56:34;;;;;;;4.23;3.40;;;16.30;99.90;;;;;;4993348;28;20187;-32
2023/09/03 02:58:59;;;;;;;5.70;3.33;;;16.20;99.90;;;;;;4977034;28;20281;-32
2023/09/03 03:01:25;;;;;;;5.57;3.03;;;16.30;99.90;;;;;;4977256;28;20210;-32
2023/09/03 03:03:51;;;;;;;5.13;3.47;;;16.20;99.90;;;;;;4977196;28;20293;-32
2023/09/03 03:06:18;;;;;;;5.07;3.23;;;16.20;99.90;;;;;;4977311;28;20175;-32
2023/09/03 03:08:44;;;;;;;5.57;3.30;;;16.20;99.90;;;;;;4977262;28;20186;-32
2023/09/03 03:11:15;;;;;;;5.20;3.43;;;16.10;99.90;;;;;;4977508;28;20197;-32
2023/09/03 03:13:50;;;;;;;5.90;3.05;;;16.10;99.90;;;;;;4977921;28;20198;-32
2023/09/03 03:16:16;;;;;;;4.18;3.30;;;16.10;99.90;;;;;;4977362;28;20183;-32
2023/09/03 03:18:45;;;;;;;5.53;3.50;;;16.10;99.90;;;;;;4995477;28;20182;-31
2023/09/03 03:21:18;;;;;;;4.07;3.00;;;16.10;99.90;;;;;;4997187;28;20178;-32
2023/09/03 03:23:50;;;;;;;3.43;3.13;;;16.20;99.90;;;;;;4995821;28;20198;-32
2023/09/03 03:26:26;;;;;;;4.67;3.10;;;16.20;99.90;;;;;;4996539;28;20185;-32
2023/09/03 03:28:53;;;;;;;6.57;3.37;;;16.20;99.90;;;;;;4996525;28;20194;-32
2023/09/03 03:31:19;;;;;;;4.63;3.40;;;16.20;99.90;;;;;;4996697;28;20175;-31
2023/09/03 03:33:48;;;;;;;6.10;3.27;;;16.20;99.90;;;;;;4989634;28;20209;-32
2023/09/03 03:36:19;;;;;;;5.33;3.30;;;16.20;99.90;;;;;;4977261;28;20194;-31
2023/09/03 03:38:45;;;;;;;5.70;3.43;;;16.20;99.90;;;;;;4976808;28;20257;-32
2023/09/03 03:41:17;;;;;;;3.93;2.80;;;16.20;99.90;;;;;;4977346;28;20214;-32
2023/09/03 03:43:45;;;;;;;4.33;3.17;;;16.20;99.90;;;;;;4996768;28;20202;-32
2023/09/03 03:46:14;;;;;;;3.70;3.10;;;16.20;99.90;;;;;;4977389;28;20200;-31
2023/09/03 03:48:41;;;;;;;4.17;3.37;;;16.10;99.90;;;;;;4976734;28;20179;-32
2023/09/03 03:51:07;;;;;;;4.37;3.57;;;16.10;99.90;;;;;;4976737;28;20179;-31
2023/09/03 03:53:33;;;;;;;5.30;3.40;;;16.10;99.90;;;;;;4976701;28;20188;-32
2023/09/03 03:56:05;;;;;;;3.97;3.33;;;16.10;99.90;;;;;;4976597;28;20211;-32
2023/09/03 03:58:33;;;;;;;3.17;2.80;;;16.10;99.90;;;;;;4978625;28;20179;-32
2023/09/03 04:00:59;;;;;;;5.03;3.00;;;16.00;99.90;;;;;;4980239;28;20287;-32
2023/09/03 04:03:27;;;;;;;5.27;3.30;;;15.90;99.90;;;;;;4980384;28;20213;-32
2023/09/03 04:06:01;;;;;;;4.17;3.00;;;15.90;99.90;;;;;;4980048;28;20307;-32
2023/09/03 04:08:28;;;;;;;5.23;3.13;;;15.90;99.90;;;;;;4994268;28;20182;-32
2023/09/03 04:10:57;;;;;;;6.20;3.13;;;15.90;99.90;;;;;;4980140;28;20191;-32
2023/09/03 04:13:24;;;;;;;3.63;2.70;;;15.90;99.90;;;;;;5000613;28;20240;-32
2023/09/03 04:15:50;;;;;;;5.37;2.90;;;15.90;99.90;;;;;;4999515;28;20225;-32
2023/09/03 04:18:16;;;;;;;3.47;3.17;;;15.90;99.90;;;;;;5014422;28;20190;-32
2023/09/03 04:20:42;;;;;;;4.38;3.58;;;15.90;99.90;;;;;;4998893;28;20179;-31
2023/09/03 04:23:08;;;;;;;4.20;3.37;;;15.90;99.90;;;;;;4998134;28;20237;-32
2023/09/03 04:25:34;;;;;;;6.90;3.30;;;15.90;99.90;;;;;;5013248;23;20223;-34
2023/09/03 04:28:00;;;;;;;6.17;3.13;;;16.00;99.90;;;;;;4983461;28;20268;-34
2023/09/03 04:30:26;;;;;;;5.83;3.07;;;16.00;99.90;;;;;;4996354;28;20270;-34
2023/09/03 04:32:52;;;;;;;4.53;3.27;;;15.90;99.90;;;;;;4996220;28;20183;-34
2023/09/03 04:35:19;;;;;;;3.17;2.53;;;15.90;99.90;;;;;;4994431;28;20214;-34
2023/09/03 04:37:45;;;;;;;3.97;3.23;;;15.80;99.90;;;;;;5019302;28;20183;-34
2023/09/03 04:40:11;;;;;;;3.67;2.87;;;15.80;99.90;;;;;;5029753;28;20190;-34
2023/09/03 04:42:38;;;;;;;3.30;3.00;;;15.80;99.90;;;;;;5002131;28;20187;-34
2023/09/03 04:45:04;;;;;;;4.50;2.93;;;15.80;99.90;;;;;;4997029;28;20404;-35
2023/09/03 04:47:30;;;;;;;3.00;2.70;;;15.80;99.90;;;;;;5004018;28;20190;-35
2023/09/03 04:49:56;;;;;;;3.50;2.93;;;15.80;99.90;;;;;;5003395;28;20176;-35
2023/09/03 04:52:22;;;;;;;2.93;2.70;;;15.80;99.90;;;;;;4995613;28;20202;-34
2023/09/03 04:54:48;;;;;;;3.80;3.00;;;15.70;99.90;;;;;;5010927;28;20210;-34
2023/09/03 04:57:13;;;;;;;4.23;2.60;;;15.70;99.90;;;;;;4996130;28;20211;-35
2023/09/03 04:59:39;;;;;;;4.20;2.80;;;15.70;99.90;;;;;;4995704;28;20191;-34
2023/09/03 05:02:05;;;;;;;3.87;2.87;;;15.60;99.90;;;;;;4997238;28;20194;-34
2023/09/03 05:04:33;;;;;;;4.07;3.10;;;15.60;99.90;;;;;;5023435;28;20777;-35
2023/09/03 05:06:59;;;;;;;6.63;4.63;;;15.60;99.90;;;;;;5006923;28;20266;-34
2023/09/03 05:09:25;;;;;;;5.47;3.83;;;15.60;99.90;;;;;;5014205;28;20266;-35
2023/09/03 05:11:51;;;;;;;7.03;3.97;;;15.60;99.90;;;;;;5007240;28;20183;-34
2023/09/03 05:14:17;;;;;;;7.50;4.23;;;15.50;99.90;;;;;;5022694;28;20278;-34
2023/09/03 05:16:43;;;;;;;5.87;4.10;;;15.50;99.90;;;;;;5007917;28;20266;-34
2023/09/03 05:19:09;;;;;;;5.03;3.77;;;15.50;99.90;;;;;;5003992;28;20186;-35
2023/09/03 05:21:35;;;;;;;7.43;3.93;;;15.50;99.90;;;;;;5000909;28;20175;-34
2023/09/03 05:24:01;;;;;;;7.50;4.27;;;15.50;99.90;;;;;;5030314;28;20264;-34
2023/09/03 05:26:29;;;;;;;4.33;3.40;;;15.60;99.90;;;;;;4988213;28;20223;-34
2023/09/03 05:28:55;;;;;;;5.17;3.13;;;15.60;99.90;;;;;;5002499;28;20187;-35
2023/09/03 05:31:20;;;;;;;3.67;3.20;;;15.70;99.90;;;;;;5014287;28;20174;-34
2023/09/03 05:33:46;;;;;;;4.00;3.60;;;15.70;99.90;;;;;;5015750;28;20214;-34
2023/09/03 05:36:13;;;;;;;5.40;3.70;;;15.80;99.90;;;;;;4994598;28;20230;-34
2023/09/03 05:38:42;;;;;;;5.13;3.50;;;15.80;99.90;;;;;;4994797;28;20194;-35
2023/09/03 05:41:11;;;;;;;4.13;3.57;;;15.90;99.90;;;;;;4994678;28;20183;-35
2023/09/03 05:43:38;;;;;;;4.80;3.30;;;15.90;99.90;;;;;;5002694;28;20290;-34
2023/09/03 05:46:04;;;;;;;4.40;3.50;;;16.00;99.90;;;;;;4994874;28;20204;-34
2023/09/03 05:48:32;;;;;;;4.03;3.10;;;16.10;99.90;;;;;;5020698;28;20256;-35
2023/09/03 05:51:05;;;;;;;6.90;3.40;;;16.10;99.90;;;;;;5021433;28;20278;-34
2023/09/03 05:53:34;;;;;;;4.13;3.33;;;16.10;99.90;;;;;;5012425;28;20182;-35
2023/09/03 05:56:07;;;;;;;4.68;3.25;;;16.10;99.90;;;;;;5010438;28;20347;-35
2023/09/03 05:58:34;;;;;;;4.77;3.57;;;16.20;99.90;;;;;;5006720;28;20253;-35
2023/09/03 06:01:08;;;;;;;4.10;3.60;;;16.20;99.90;;;;;;5013126;28;20198;-33
2023/09/03 06:03:35;;;;;;;3.77;3.37;;;16.20;99.90;;;;;;5006113;28;20206;-33
2023/09/03 06:06:05;;;;;;;4.83;3.17;;;16.30;99.90;;;;;;5012929;28;20203;-34
2023/09/03 06:08:33;;;;;;;5.67;3.77;;;16.30;99.90;;;;;;5005398;28;20234;-34
2023/09/03 06:11:00;;;;;;;4.28;3.63;;;16.30;99.90;;;;;;5013571;28;20190;-33
2023/09/03 06:13:26;;;;;;;3.83;3.15;;;16.40;99.90;;;;;;4997997;28;20219;-35
2023/09/03 06:15:53;;;;;;;4.00;3.60;;;16.40;99.90;;;;;;5021849;28;20206;-34
2023/09/03 06:18:19;;;;;;;4.00;3.50;;;16.40;99.90;;;;;;5021040;28;20186;-34
2023/09/03 06:20:44;;;;;;;3.65;3.22;;;16.40;99.90;;;;;;5015258;28;20277;-33
2023/09/03 06:23:15;;;;;;;5.80;3.60;;;16.40;99.90;;;;;;4995582;28;20210;-35
2023/09/03 06:25:42;;;;;;;3.92;3.35;;;16.40;99.90;;;;;;5013554;28;20216;-34
2023/09/03 06:28:09;;;;;;;4.47;3.45;;;16.40;99.90;;;;;;5011938;28;20182;-33
2023/09/03 06:30:35;;;;;;;3.97;3.20;;;16.40;99.90;;;;;;5014793;28;20175;-35
2023/09/03 06:33:00;;;;;;;3.50;3.20;;;16.40;99.90;;;;;;5011894;28;20251;-33
2023/09/03 06:35:26;;;;;;;5.78;3.03;;;16.30;99.90;;;;;;4993683;28;20290;-34
2023/09/03 06:37:52;;;;;;;4.85;3.63;;;16.40;99.90;;;;;;5001218;28;20182;-34
2023/09/03 06:40:18;;;;;;;3.83;3.42;;;16.40;99.90;;;;;;5013255;28;20205;-33
2023/09/03 06:42:44;;;;;;;3.87;3.30;;;16.60;99.90;;;;;;5001711;28;20190;-33
2023/09/03 06:45:10;;;;;;;5.10;3.22;;;16.60;99.90;;;;;;4994732;28;20298;-34
2023/09/03 06:47:38;;;;;;;4.78;3.35;;;16.70;99.90;;;;;;5002752;28;20266;-34
2023/09/03 06:50:05;;;;;;;5.10;3.10;;;16.80;99.90;;;;;;5001673;28;20186;-34
2023/09/03 06:52:31;;;;;;;3.78;3.47;;;16.90;99.90;;;;;;4993886;28;20175;-33
2023/09/03 06:54:57;;;;;;;3.90;2.88;;;16.90;99.90;;;;;;5001270;28;20206;-33
2023/09/03 06:57:24;;;;;;;3.33;3.03;;;17.00;99.90;;;;;;5018344;28;20206;-34
2023/09/03 06:59:50;;;;;;;3.38;3.08;;;17.10;99.90;;;;;;5000777;28;20195;-35
2023/09/03 07:02:16;;;;;;;4.88;3.17;;;17.20;99.90;;;;;;5003980;28;20182;-34
2023/09/03 07:04:42;;;;;;;4.03;3.63;;;17.30;99.90;;;;;;5007531;28;20230;-34
2023/09/03 07:07:09;;;;;;;6.97;3.65;;;17.40;99.90;;;;;;5018906;28;20174;-33
2023/09/03 07:09:35;;;;;;;6.05;3.63;;;17.50;99.90;;;;;;5012761;28;20182;-33
2023/09/03 07:12:02;;;;;;;6.55;3.35;;;17.60;99.90;;;;;;5005227;28;20213;-34
2023/09/03 07:14:32;;;;;;;7.28;3.35;;;17.70;99.90;;;;;;5013385;28;20183;-34
2023/09/03 07:17:00;;;;;;;6.75;3.80;;;17.80;99.90;;;;;;5004981;28;20190;-33
2023/09/03 07:19:26;;;;;;;3.65;3.33;;;17.80;99.90;;;;;;5009312;28;20187;-34
2023/09/03 07:21:52;;;;;;;3.50;3.17;;;17.80;99.90;;;;;;5029574;28;20197;-34
2023/09/03 07:24:18;;;;;;;4.05;3.65;;;18.00;99.90;;;;;;5010551;28;20241;-34
2023/09/03 07:26:43;;;;;;;4.65;3.90;;;18.10;99.90;;;;;;5006479;28;20225;-35
2023/09/03 07:29:09;;;;;;;4.65;3.10;;;18.20;99.90;;;;;;5010957;28;20233;-34
2023/09/03 07:31:40;;;;;;;4.32;3.30;;;18.30;99.90;;;;;;5004019;28;20187;-34
2023/09/03 07:34:25;;;;;;;4.30;3.28;;;18.30;99.90;;;;;;5032220;28;20210;-35
2023/09/03 07:36:50;;;;;;;3.97;3.58;;;18.50;99.90;;;;;;5016468;28;20186;-34
2023/09/03 07:39:16;;;;;;;6.15;3.70;;;18.60;99.90;;;;;;5008549;28;20183;-34
2023/09/03 07:41:42;;;;;;;4.60;3.60;;;18.70;99.90;;;;;;5016702;28;20187;-33
2023/09/03 07:44:08;;;;;;;5.38;3.63;;;18.80;99.90;;;;;;5009865;28;20214;-34
2023/09/03 07:46:34;;;;;;;4.35;3.45;;;18.90;99.90;;;;;;5012207;28;20188;-34
2023/09/03 07:49:00;;;;;;;4.63;3.03;;;19.00;99.90;;;;;;5021029;28;20178;-33
2023/09/03 07:51:26;;;;;;;3.65;3.30;;;19.00;99.90;;;;;;5029249;28;20184;-34
2023/09/03 07:53:52;;;;;;;3.90;3.50;;;19.10;99.90;;;;;;4996907;28;20187;-34
2023/09/03 07:56:18;;;;;;;4.07;3.08;;;19.20;99.90;;;;;;5011303;28;20244;-34
2023/09/03 07:58:44;;;;;;;4.57;3.10;;;19.30;99.90;;;;;;4996462;28;20199;-35
2023/09/03 08:01:15;;;;;;;3.97;3.45;;;19.40;99.90;;;;;;5013985;28;20190;-34
2023/09/03 08:03:41;;;;;;;4.72;3.28;;;19.50;99.90;;;;;;5015750;28;20249;-34
2023/09/03 08:06:08;;;;;;;4.10;3.13;;;19.50;99.90;;;;;;5006909;28;20203;-34
2023/09/03 08:08:34;;;;;;;4.43;3.20;;;19.60;99.90;;;;;;5003961;28;20210;-36
2023/09/03 08:11:01;;;;;;;4.47;3.13;;;19.70;99.90;;;;;;5012936;28;20187;-35
2023/09/03 08:13:27;;;;;;;4.45;3.58;;;19.80;99.90;;;;;;4995936;28;20193;-34
2023/09/03 08:15:53;;;;;;;4.97;3.20;;;19.90;99.90;;;;;;5007756;28;20262;-34
2023/09/03 08:18:20;;;;;;;7.35;3.35;;;20.00;99.90;;;;;;5015966;28;20191;-35
2023/09/03 08:20:48;;;;;;;3.55;3.25;;;20.10;99.90;;;;;;5007799;28;20183;-34
2023/09/03 08:23:14;;;;;;;3.42;3.13;;;20.20;99.90;;;;;;5018545;28;20221;-34
2023/09/03 08:25:40;;;;;;;4.25;3.10;;;20.30;99.90;;;;;;5000696;28;20297;-34
2023/09/03 08:28:10;;;;;;;4.28;2.97;;;20.40;99.90;;;;;;5015592;28;20202;-34
2023/09/03 08:30:37;;;;;;;5.05;3.15;;;20.60;99.90;;;;;;5012451;28;20179;-33
2023/09/03 08:33:03;;;;;;;3.42;3.08;;;20.70;99.90;;;;;;5012311;28;20277;-34
2023/09/03 08:35:29;;;;;;;3.45;3.13;;;20.90;99.90;;;;;;5022516;28;20198;-35
2023/09/03 08:37:55;;;;;;;3.40;3.10;;;20.90;99.90;;;;;;5017005;28;20198;-34
2023/09/03 08:40:22;;;;;;;5.57;3.05;;;21.00;99.90;;;;;;5006257;28;20286;-35
2023/09/03 08:42:49;;;;;;;4.85;2.90;;;21.00;99.90;;;;;;5015324;28;20189;-34
2023/09/03 08:45:18;;;;;;;4.05;2.67;;;21.20;99.90;;;;;;5012295;28;20209;-34
2023/09/03 08:47:45;;;;;;;4.65;2.92;;;21.30;99.90;;;;;;5005786;28;20191;-34
2023/09/03 08:50:13;;;;;;;5.47;3.53;;;21.50;99.90;;;;;;5012774;28;20190;-34
2023/09/03 08:52:40;;;;;;;3.28;2.90;;;21.70;99.90;;;;;;5010126;28;20226;-34
2023/09/03 08:55:07;;;;;;;3.83;2.80;;;21.90;99.90;;;;;;5022513;28;20211;-33
2023/09/03 08:57:34;;;;;;;3.47;2.90;;;22.00;99.90;;;;;;4999320;28;20187;-35
2023/09/03 09:00:05;;;;;;;4.47;3.30;;;22.20;99.90;;;;;;5016153;28;20199;-34
2023/09/03 09:02:35;;;;;;;3.70;3.30;;;22.30;99.90;;;;;;5004062;28;20191;-35
2023/09/03 09:05:03;;;;;;;6.18;3.20;;;22.40;99.90;;;;;;5003381;28;20206;-35
2023/09/03 09:07:29;;;;;;;3.08;2.78;;;22.30;99.90;;;;;;5022787;28;20641;-34
2023/09/03 09:09:58;;;;;;;5.28;2.88;;;22.40;99.90;;;;;;5016832;28;20179;-34
2023/09/03 09:12:36;;;;;;;4.07;2.80;;;22.40;99.90;;;;;;4996947;28;20186;-34
2023/09/03 09:15:04;;;;;;;5.82;3.38;;;22.50;99.90;;;;;;5015848;28;20203;-33
2023/09/03 09:17:41;;;;;;;4.53;2.97;;;22.60;99.90;;;;;;5014373;28;20240;-34
2023/09/03 09:20:10;;;;;;;4.15;3.10;;;22.60;99.90;;;;;;5013819;28;20186;-34
2023/09/03 09:22:50;;;;;;;4.75;2.88;;;22.70;99.90;;;;;;4998339;28;20202;-34
2023/09/03 09:25:21;;;;;;;3.58;2.63;;;22.90;99.90;;;;;;5002826;28;20205;-34
2023/09/03 09:27:48;;;;;;;3.55;2.70;;;23.10;99.90;;;;;;4994411;28;20191;-34
2023/09/03 09:30:22;;;;;;;3.35;2.50;;;23.10;99.90;;;;;;5010412;28;20259;-34
2023/09/03 09:33:01;;;;;;;3.38;2.70;;;23.20;99.90;;;;;;5016420;28;20179;-35
2023/09/03 09:35:26;;;;;;;2.65;2.40;;;23.30;99.90;;;;;;5019839;28;20198;-35
2023/09/03 09:37:52;;;;;;;2.60;2.40;;;23.40;99.90;;;;;;5005488;28;20257;-35
2023/09/03 09:40:32;;;;;;;2.72;2.20;;;23.60;99.90;;;;;;5012076;28;20218;-35
2023/09/03 09:43:04;;;;;;;2.90;2.22;;;23.80;99.90;;;;;;5011142;28;20213;-34
2023/09/03 09:45:31;;;;;;;2.78;2.00;;;23.90;99.90;;;;;;5010684;28;20207;-35
2023/09/03 09:48:06;;;;;;;3.25;2.33;;;24.00;99.90;;;;;;5030104;28;20194;-34
2023/09/03 09:50:36;;;;;;;4.05;2.38;;;24.10;99.90;;;;;;5010624;28;20194;-34
2023/09/03 09:53:03;;;;;;;3.92;2.50;;;24.30;99.90;;;;;;5001803;28;20190;-35
2023/09/03 09:55:31;;;;;;;3.38;2.40;;;24.50;99.90;;;;;;5018064;28;20199;-34
2023/09/03 09:57:58;;;;;;;3.90;2.20;;;24.70;99.90;;;;;;5018892;28;20294;-35
2023/09/03 10:00:38;;;;;;;2.97;2.67;;;24.80;99.90;;;;;;5004410;28;20190;-35
2023/09/03 10:03:10;;;;;;;2.40;2.10;;;24.80;99.90;;;;;;5014559;28;20183;-36
2023/09/03 10:05:37;;;;;;;3.90;2.42;;;24.90;99.90;;;;;;5002426;28;20353;-34
2023/09/03 10:08:03;;;;;;;2.72;2.30;;;24.90;99.90;;;;;;5009883;28;20175;-35
2023/09/03 10:10:30;;;;;;;2.55;2.30;;;25.10;99.90;;;;;;5010881;28;20214;-35
2023/09/03 10:12:56;;;;;;;2.33;2.13;;;25.20;99.90;;;;;;5016858;28;20175;-34
2023/09/03 10:15:24;;;;;;;3.20;2.90;;;25.20;99.90;;;;;;5020330;28;20250;-35
2023/09/03 10:17:52;;;;;;;3.38;2.72;;;25.30;99.90;;;;;;5004262;28;20219;-36
2023/09/03 10:20:19;;;;;;;2.95;2.53;;;25.30;99.90;;;;;;5016361;28;20171;-35
2023/09/03 10:22:49;;;;;;;2.90;2.38;;;25.30;99.90;;;;;;5006812;28;20214;-35
2023/09/03 10:25:21;;;;;;;2.90;2.60;;;25.50;99.90;;;;;;5012920;28;20676;-33
2023/09/03 10:27:52;;;;;;;3.85;2.40;;;25.60;99.90;;;;;;5001906;28;20179;-33
2023/09/03 10:30:24;;;;;;;3.95;2.70;;;25.70;99.90;;;;;;4993575;28;20183;-33
2023/09/03 10:32:52;;;;;;;2.42;2.20;;;25.90;99.90;;;;;;5023490;28;20183;-33
2023/09/03 10:35:18;;;;;;;2.22;2.03;;;25.90;99.90;;;;;;5012124;28;20232;-33
2023/09/03 10:37:44;;;;;;;3.20;1.90;;;25.90;99.90;;;;;;4993706;28;20190;-34
2023/09/03 10:40:22;;;;;;;2.70;2.17;;;25.90;99.90;;;;;;4993974;28;20183;-35
2023/09/03 10:42:48;;;;;;;3.38;2.10;;;25.90;99.90;;;;;;5011976;28;20214;-33
2023/09/03 10:45:15;;;;;;;1.90;1.77;;;25.70;99.90;;;;;;5009567;28;20210;-34
2023/09/03 10:48:05;;;;;;;1.75;1.65;;;25.70;99.90;;;;;;5008311;28;20179;-33
2023/09/03 10:50:50;;;;;;;2.10;1.90;;;26.00;99.90;;;;;;5004688;28;20182;-34
2023/09/03 10:53:39;;;;;;;2.92;2.10;;;26.10;99.90;;;;;;5012914;28;20190;-34
2023/09/03 10:56:16;;;;;;;2.10;1.70;;;26.30;99.90;;;;;;5012991;28;20213;-33
2023/09/03 10:59:01;;;;;;;1.88;1.52;;;26.20;99.90;;;;;;5013009;28;20202;-33
2023/09/03 11:01:32;;;;;;;1.65;1.55;;;26.10;99.90;;;;;;5013210;28;20273;-34
2023/09/03 11:04:02;;;;;;;2.75;1.40;;;26.10;99.90;;;;;;5014637;28;20274;-33
2023/09/03 11:06:33;;;;;;;1.92;1.73;;;26.00;99.90;;;;;;5008484;28;20205;-33
2023/09/03 11:08:59;;;;;;;1.90;1.58;;;26.00;99.90;;;;;;5006948;28;20210;-33
2023/09/03 11:11:27;;;;;;;1.50;1.40;;;25.80;99.90;;;;;;5025603;28;20218;-34
2023/09/03 11:13:53;;;;;;;1.92;1.60;;;25.80;99.90;;;;;;5017120;28;20197;-33
2023/09/03 11:16:30;;;;;;;2.95;1.60;;;25.90;99.90;;;;;;4999534;28;20203;-34
2023/09/03 11:18:56;;;;;;;3.33;1.85;;;26.10;99.90;;;;;;4996851;28;20187;-33
2023/09/03 11:21:27;;;;;;;1.70;1.60;;;26.20;99.90;;;;;;5014326;28;20265;-33
2023/09/03 11:24:05;;;;;;;3.35;1.67;;;26.20;99.90;;;;;;5016767;28;20206;-33
2023/09/03 11:26:32;;;;;;;1.83;1.50;;;26.30;99.90;;;;;;5016255;28;20297;-34
2023/09/03 11:29:00;;;;;;;1.70;1.60;;;26.60;99.90;;;;;;5016759;28;20183;-33
2023/09/03 11:31:27;;;;;;;1.83;1.60;;;26.80;99.90;;;;;;5017040;28;20265;-33
2023/09/03 11:33:53;;;;;;;2.47;1.67;;;26.90;99.90;;;;;;5016537;28;20194;-33
2023/09/03 11:36:24;;;;;;;2.35;1.42;;;27.00;99.90;;;;;;5015655;28;20206;-33
2023/09/03 11:38:51;;;;;;;1.30;1.20;;;26.90;99.90;;;;;;5010033;28;20197;-34
2023/09/03 11:41:20;;;;;;;1.80;1.40;;;27.00;99.90;;;;;;5016267;28;20186;-33
2023/09/03 11:43:46;;;;;;;2.10;1.50;;;27.10;99.90;;;;;;5003820;28;20265;-34
2023/09/03 11:46:14;;;;;;;1.67;1.58;;;27.30;99.90;;;;;;4996863;28;20222;-34
2023/09/03 11:48:40;;;;;;;1.70;1.40;;;27.30;99.90;;;;;;5016184;28;20186;-34
2023/09/03 11:51:06;;;;;;;1.80;1.60;;;27.20;99.90;;;;;;5016203;28;20218;-34
2023/09/03 11:53:42;;;;;;;1.75;1.63;;;27.20;99.90;;;;;;5005517;28;20262;-33
2023/09/03 11:56:12;;;;;;;1.83;1.73;;;27.00;99.90;;;;;;5004801;28;20210;-33
2023/09/03 11:58:39;;;;;;;1.67;1.58;;;26.90;99.90;;;;;;5004616;28;20183;-33
2023/09/03 12:01:07;;;;;;;2.42;1.80;;;27.00;99.90;;;;;;4995434;28;20194;-33
2023/09/03 12:03:33;;;;;;;1.67;1.58;;;27.00;99.90;;;;;;5014269;28;20236;-33
2023/09/03 12:06:00;;;;;;;1.80;1.70;;;27.10;99.90;;;;;;5001799;28;20225;-33
2023/09/03 12:08:31;;;;;;;1.45;1.35;;;26.90;99.90;;;;;;4998102;28;20210;-33
2023/09/03 12:10:57;;;;;;;1.60;1.50;;;26.90;99.90;;;;;;5024520;28;20215;-34
2023/09/03 12:13:34;;;;;;;1.77;1.48;;;26.90;99.90;;;;;;5014754;28;20210;-33
2023/09/03 12:16:06;;;;;;;1.77;1.55;;;26.90;99.90;;;;;;5001744;28;20202;-33
2023/09/03 12:18:32;;;;;;;2.72;1.52;;;27.00;99.90;;;;;;5023675;28;20219;-33
2023/09/03 12:20:58;;;;;;;1.50;1.40;;;27.00;99.90;;;;;;5010034;28;20715;-33
2023/09/03 12:23:24;;;;;;;1.60;1.50;;;27.30;99.90;;;;;;5016764;28;20206;-33
2023/09/03 12:25:50;;;;;;;3.50;1.60;;;27.50;99.90;;;;;;5002656;28;20215;-33
2023/09/03 12:28:16;;;;;;;2.22;1.50;;;27.40;99.90;;;;;;5008885;28;20210;-34
2023/09/03 12:30:58;;;;;;;1.95;1.50;;;27.70;99.90;;;;;;5004014;28;20263;-34
2023/09/03 12:33:33;;;;;;;1.60;1.50;;;27.90;99.90;;;;;;5013325;28;20325;-33
2023/09/03 12:36:21;;;;;;;2.00;1.45;;;28.00;99.90;;;;;;5015988;28;20197;-31
2023/09/03 12:38:52;;;;;;;1.58;1.48;;;28.10;99.90;;;;;;5024707;28;20277;-31
2023/09/03 12:41:18;;;;;;;1.80;1.70;;;28.10;99.90;;;;;;5015405;28;20214;-31
2023/09/03 12:43:44;;;;;;;2.05;1.67;;;28.10;99.90;;;;;;5011375;28;20211;-30
2023/09/03 12:46:10;;;;;;;2.28;1.60;;;28.20;99.90;;;;;;5020339;28;20201;-31
2023/09/03 12:48:36;;;;;;;1.73;1.48;;;28.20;99.90;;;;;;5000491;28;20229;-30
2023/09/03 12:51:03;;;;;;;1.60;1.50;;;27.90;99.90;;;;;;5015324;28;20180;-31
2023/09/03 12:53:29;;;;;;;2.45;1.70;;;27.80;99.90;;;;;;4997110;28;20187;-31
2023/09/03 12:55:55;;;;;;;1.85;1.50;;;27.80;99.90;;;;;;5008813;28;20241;-31